Airfield :
LOGIN :

Register | Disclaimer

   EN    FR    IT 

 










Legend :    VFR   Marginal VFR   IFR   Intensive IFR   Very Intensive IFR
Visi :
Ceiling :
>= 8 km
>= 3000ft
5 to 8 km
1000 to 3000 ft
1500m to 5 km
500 to 1000 ft
800 to 1500m
200 to 500 ft
< 800m
< 200 ft
Symbols :   Thunderstorms  Fog  Heavy snow  Heavy precipitations  Wind > 20 kt
SIGMETs :     Misc.  Thunderstorms  Icing  Turbulence  Mountain Waves  Volcanic Ashes







- Airport Elevation : 374 ft
- IATA code : LIS


LPPT - Lisboa Portela

CURRENT METAR :
  • 241730Z 32013KT 280V340 CAVOK 27/11 Q1013

EXPIRED METARs :
  • 241700Z 31012KT CAVOK 28/12 Q1013
  • 241630Z 31009KT 280V340 CAVOK 28/13 Q1013
  • 241600Z 31010KT 280V340 CAVOK 28/12 Q1014
  • 241530Z 31009KT 280V340 CAVOK 29/14 Q1014
  • 241500Z VRB06KT CAVOK 30/14 Q1014

TAF TAF LPPT
Valid from the 24 at 18:00 until the 26 at 00:00 UTC


241700Z 2418/2524 31012KT CAVOK
TEMPO 2418/2422 9999 FEW030CB
BECMG 2500/2502 VRB03KT
BECMG 2510/2512 22008KT
TEMPO 2512/2522 9999 FEW030CB
BECMG 2514/2517 30010KT
BECMG 2520/2522 34008KT
No reported NOTAMs for that airfield.



MET'MAP, your aeronautical weather chart ! - Copyright ORBIFLY December 2007 - Disclaimer

ORBIFLY MET'MAP TEAM :

Programming & Development : Alexandra Zaïnal
Concept & Development : Baudouin d'Aumeries
Co-Development & Prog : Marc-Olivier Méhu
Technical & hardware support : Manuel Goepfert

Contact : metmap@orbifly.com




SOURCES & CREDITS :

   NOAA